Time;durP1;ratioP1;P1;durP2;ratioP2;P2;SDS_P1;SDS_P2;PMS_P1;PMS_P2;Temp;Humidity;BMP_temperature;BMP_pressure;BME280_temperature;BME280_humidity;BME280_pressure;Samples;Min_cycle;Max_cycle;Signal;HPM_P1;HPM_P2
2021/07/09 00:00:50;;;;;;;2.38;1.67;;;;;;;;;;5034620;28;20028;-57
2021/07/09 00:03:16;;;;;;;9.38;2.50;;;;;;;;;;5029055;28;20037;-57
2021/07/09 00:05:41;;;;;;;4.40;2.08;;;;;;;;;;5029619;28;20029;-57
2021/07/09 00:08:06;;;;;;;5.53;2.25;;;;;;;;;;5036968;28;20044;-57
2021/07/09 00:10:32;;;;;;;4.40;1.60;;;;;;;;;;5037825;28;20427;-58
2021/07/09 00:12:57;;;;;;;14.43;2.03;;;;;;;;;;5040171;28;20032;-57
2021/07/09 00:15:22;;;;;;;8.45;1.98;;;;;;;;;;5040311;28;20018;-57
2021/07/09 00:17:47;;;;;;;5.32;1.77;;;;;;;;;;5042328;28;20651;-58
2021/07/09 00:20:13;;;;;;;5.43;1.92;;;;;;;;;;5039119;28;20021;-57
2021/07/09 00:22:38;;;;;;;7.38;3.17;;;;;;;;;;5038463;28;20021;-58
2021/07/09 00:25:04;;;;;;;10.20;2.53;;;;;;;;;;5039995;28;20037;-58
2021/07/09 00:27:30;;;;;;;5.65;2.15;;;;;;;;;;5040477;28;20086;-57
2021/07/09 00:29:55;;;;;;;4.82;1.63;;;;;;;;;;5039871;28;20159;-58
2021/07/09 00:32:20;;;;;;;3.30;1.25;;;;;;;;;;5040811;28;20024;-58
2021/07/09 00:34:45;;;;;;;3.67;1.40;;;;;;;;;;5038677;28;20113;-58
2021/07/09 00:37:11;;;;;;;5.95;2.33;;;;;;;;;;5039930;28;20026;-58
2021/07/09 00:39:36;;;;;;;6.82;3.78;;;;;;;;;;5039534;28;20041;-58
2021/07/09 00:42:01;;;;;;;3.60;1.60;;;;;;;;;;5035545;28;20037;-58
2021/07/09 00:44:27;;;;;;;3.28;1.35;;;;;;;;;;5042237;28;20485;-57
2021/07/09 00:46:52;;;;;;;3.92;1.45;;;;;;;;;;5041892;28;20037;-57
2021/07/09 00:49:18;;;;;;;3.08;1.88;;;;;;;;;;5040593;28;20447;-57
2021/07/09 00:51:43;;;;;;;4.47;2.28;;;;;;;;;;5037578;28;20032;-58
2021/07/09 00:54:08;;;;;;;5.15;1.73;;;;;;;;;;5041137;28;20029;-58
2021/07/09 00:56:34;;;;;;;2.90;1.42;;;;;;;;;;5039767;28;20041;-57
2021/07/09 00:59:00;;;;;;;3.85;1.83;;;;;;;;;;5037787;28;20029;-57
2021/07/09 01:01:26;;;;;;;6.03;1.88;;;;;;;;;;5035719;28;20061;-58
2021/07/09 01:03:51;;;;;;;6.45;2.38;;;;;;;;;;5040623;28;20141;-58
2021/07/09 01:06:16;;;;;;;4.65;1.20;;;;;;;;;;5037877;28;20068;-57
2021/07/09 01:08:42;;;;;;;6.97;3.03;;;;;;;;;;5033275;28;20074;-57
2021/07/09 01:11:07;;;;;;;10.80;1.90;;;;;;;;;;5032722;28;20025;-57
2021/07/09 01:13:33;;;;;;;22.70;3.65;;;;;;;;;;5034965;28;20017;-57
2021/07/09 01:15:58;;;;;;;3.85;2.03;;;;;;;;;;5041273;28;20069;-57
2021/07/09 01:18:24;;;;;;;14.48;2.38;;;;;;;;;;5040116;28;20020;-57
2021/07/09 01:20:49;;;;;;;4.32;1.85;;;;;;;;;;5039644;28;20527;-57
2021/07/09 01:23:18;;;;;;;9.73;3.10;;;;;;;;;;5040466;28;20126;-58
2021/07/09 01:25:43;;;;;;;13.65;2.75;;;;;;;;;;5037067;28;20026;-57
2021/07/09 01:28:08;;;;;;;3.70;2.10;;;;;;;;;;5036076;28;20025;-57
2021/07/09 01:30:35;;;;;;;9.25;2.85;;;;;;;;;;5034954;28;20021;-57
2021/07/09 01:33:00;;;;;;;9.52;3.38;;;;;;;;;;5038476;28;20029;-57
2021/07/09 01:35:27;;;;;;;4.75;2.38;;;;;;;;;;5034861;28;20316;-57
2021/07/09 01:37:57;;;;;;;5.45;1.83;;;;;;;;;;5033790;28;20255;-57
2021/07/09 01:40:23;;;;;;;3.92;1.60;;;;;;;;;;5035128;28;20036;-57
2021/07/09 01:42:48;;;;;;;7.00;2.15;;;;;;;;;;5034869;28;20026;-58
2021/07/09 01:45:13;;;;;;;3.38;1.23;;;;;;;;;;5035477;28;20021;-58
2021/07/09 01:47:39;;;;;;;6.05;1.88;;;;;;;;;;5036718;28;20025;-58
2021/07/09 01:50:05;;;;;;;4.53;1.65;;;;;;;;;;5040133;28;20028;-58
2021/07/09 01:52:30;;;;;;;2.70;1.48;;;;;;;;;;5036547;28;20025;-58
2021/07/09 01:54:55;;;;;;;3.50;1.40;;;;;;;;;;5034463;28;20108;-57
2021/07/09 01:57:21;;;;;;;5.60;2.25;;;;;;;;;;5033846;28;20017;-58
2021/07/09 01:59:46;;;;;;;8.70;1.90;;;;;;;;;;5033687;28;20488;-58
2021/07/09 02:02:12;;;;;;;3.60;2.17;;;;;;;;;;5031501;28;20577;-57
2021/07/09 02:04:44;;;;;;;3.22;1.92;;;;;;;;;;5033303;28;20013;-58
2021/07/09 02:07:09;;;;;;;5.97;2.05;;;;;;;;;;5034176;28;20132;-58
2021/07/09 02:09:35;;;;;;;2.65;1.83;;;;;;;;;;5034103;28;20471;-57
2021/07/09 02:12:01;;;;;;;5.28;1.30;;;;;;;;;;5033336;28;20026;-58
2021/07/09 02:14:26;;;;;;;5.03;2.85;;;;;;;;;;5037246;28;20029;-57
2021/07/09 02:16:51;;;;;;;3.58;2.08;;;;;;;;;;5035728;28;20097;-57
2021/07/09 02:19:17;;;;;;;8.70;2.10;;;;;;;;;;5037552;28;20176;-58
2021/07/09 02:21:44;;;;;;;6.95;3.28;;;;;;;;;;5035215;28;20025;-58
2021/07/09 02:24:10;;;;;;;3.22;1.30;;;;;;;;;;5037445;28;20024;-57
2021/07/09 02:26:35;;;;;;;4.22;1.77;;;;;;;;;;5034055;28;20338;-58
2021/07/09 02:29:00;;;;;;;1.65;1.17;;;;;;;;;;5038058;28;20020;-57
2021/07/09 02:31:26;;;;;;;2.75;1.70;;;;;;;;;;5033962;28;20024;-58
2021/07/09 02:33:51;;;;;;;7.22;2.50;;;;;;;;;;5031834;28;20477;-58
2021/07/09 02:36:16;;;;;;;7.25;1.63;;;;;;;;;;5031716;28;20486;-57
2021/07/09 02:38:42;;;;;;;5.28;2.08;;;;;;;;;;5032345;28;20048;-58
2021/07/09 02:41:07;;;;;;;2.60;1.17;;;;;;;;;;5035293;28;20435;-57
2021/07/09 02:43:32;;;;;;;6.93;2.17;;;;;;;;;;5038214;28;20037;-57
2021/07/09 02:45:58;;;;;;;5.65;1.73;;;;;;;;;;5029421;28;20101;-58
2021/07/09 02:48:23;;;;;;;2.03;1.20;;;;;;;;;;5034234;28;20028;-57
2021/07/09 02:50:49;;;;;;;2.50;1.70;;;;;;;;;;5033289;28;20025;-57
2021/07/09 02:53:14;;;;;;;9.15;1.70;;;;;;;;;;5038038;28;20040;-57
2021/07/09 02:55:39;;;;;;;7.20;1.98;;;;;;;;;;5035404;28;20116;-57
2021/07/09 02:58:05;;;;;;;5.53;2.33;;;;;;;;;;5032157;28;20041;-57
2021/07/09 03:00:30;;;;;;;13.57;2.42;;;;;;;;;;5034075;28;20478;-57
2021/07/09 03:02:56;;;;;;;3.97;2.83;;;;;;;;;;5033557;28;20042;-56
2021/07/09 03:05:21;;;;;;;5.63;2.08;;;;;;;;;;5031723;28;20489;-57
2021/07/09 03:07:46;;;;;;;6.50;1.80;;;;;;;;;;5030405;28;20519;-57
2021/07/09 03:10:12;;;;;;;3.85;1.55;;;;;;;;;;5033914;28;20103;-57
2021/07/09 03:12:38;;;;;;;2.95;1.85;;;;;;;;;;5031899;28;20554;-57
2021/07/09 03:15:04;;;;;;;7.70;1.52;;;;;;;;;;5035581;28;20040;-57
2021/07/09 03:17:29;;;;;;;4.50;1.75;;;;;;;;;;5036439;28;20611;-57
2021/07/09 03:19:54;;;;;;;3.95;1.48;;;;;;;;;;5029169;28;20074;-57
2021/07/09 03:22:20;;;;;;;4.25;1.83;;;;;;;;;;5034902;28;20526;-57
2021/07/09 03:24:45;;;;;;;2.20;1.25;;;;;;;;;;5030059;28;20061;-57
2021/07/09 03:27:11;;;;;;;2.05;1.25;;;;;;;;;;5034216;28;20090;-57
2021/07/09 03:29:36;;;;;;;4.28;1.30;;;;;;;;;;5032523;28;20029;-57
2021/07/09 03:32:01;;;;;;;3.75;2.17;;;;;;;;;;5031709;28;20020;-57
2021/07/09 03:34:27;;;;;;;13.23;2.53;;;;;;;;;;5033548;28;20025;-57
2021/07/09 03:36:52;;;;;;;1.92;1.02;;;;;;;;;;5032995;28;20018;-57
2021/07/09 03:39:17;;;;;;;4.53;2.10;;;;;;;;;;5035787;28;20013;-57
2021/07/09 03:41:43;;;;;;;1.20;0.88;;;;;;;;;;5033934;28;20513;-57
2021/07/09 03:44:09;;;;;;;6.10;2.10;;;;;;;;;;5033824;28;20562;-57
2021/07/09 03:46:35;;;;;;;9.05;2.17;;;;;;;;;;5034943;28;20029;-57
2021/07/09 03:49:01;;;;;;;4.35;1.85;;;;;;;;;;5031642;28;20040;-57
2021/07/09 03:51:26;;;;;;;2.45;1.73;;;;;;;;;;5033348;28;20392;-57
2021/07/09 03:53:54;;;;;;;3.80;1.70;;;;;;;;;;5034473;28;20628;-57
2021/07/09 03:56:20;;;;;;;4.32;1.58;;;;;;;;;;5032502;28;20052;-57
2021/07/09 03:58:46;;;;;;;2.45;1.58;;;;;;;;;;5035211;28;20052;-57
2021/07/09 04:01:11;;;;;;;1.73;0.98;;;;;;;;;;5032495;28;20460;-57
2021/07/09 04:03:36;;;;;;;6.70;1.38;;;;;;;;;;5034194;28;20033;-57
2021/07/09 04:06:01;;;;;;;5.88;1.92;;;;;;;;;;5031131;28;20087;-57
2021/07/09 04:08:27;;;;;;;1.55;1.08;;;;;;;;;;5029832;28;20476;-57
2021/07/09 04:10:52;;;;;;;2.22;1.35;;;;;;;;;;5030142;28;20049;-57
2021/07/09 04:13:17;;;;;;;2.58;1.48;;;;;;;;;;5032529;28;20094;-57
2021/07/09 04:15:43;;;;;;;5.03;1.58;;;;;;;;;;5032256;28;20500;-57
2021/07/09 04:18:08;;;;;;;4.25;2.53;;;;;;;;;;5029124;28;20028;-57
2021/07/09 04:20:33;;;;;;;6.10;1.88;;;;;;;;;;5033459;28;20438;-57
2021/07/09 04:22:59;;;;;;;4.72;2.20;;;;;;;;;;5031817;28;20140;-57
2021/07/09 04:25:24;;;;;;;3.25;1.48;;;;;;;;;;5035920;28;20021;-57
2021/07/09 04:27:49;;;;;;;3.78;1.60;;;;;;;;;;5035733;28;20034;-57
2021/07/09 04:30:15;;;;;;;5.80;2.40;;;;;;;;;;5035072;28;20096;-57
2021/07/09 04:32:40;;;;;;;1.30;1.20;;;;;;;;;;5033455;28;20028;-57
2021/07/09 04:35:06;;;;;;;6.63;1.58;;;;;;;;;;5031631;28;20536;-57
2021/07/09 04:37:31;;;;;;;2.60;1.42;;;;;;;;;;5032526;28;20027;-56
2021/07/09 04:39:57;;;;;;;8.60;2.05;;;;;;;;;;5028818;28;20397;-57
2021/07/09 04:42:22;;;;;;;3.08;1.40;;;;;;;;;;5030643;28;20385;-57
2021/07/09 04:44:48;;;;;;;20.83;18.83;;;;;;;;;;5034834;28;20018;-57
2021/07/09 04:47:13;;;;;;;4.30;3.10;;;;;;;;;;5032425;28;20017;-57
2021/07/09 04:49:39;;;;;;;3.75;1.63;;;;;;;;;;5034530;28;20049;-57
2021/07/09 04:52:05;;;;;;;3.85;2.08;;;;;;;;;;5037181;28;20442;-57
2021/07/09 04:54:30;;;;;;;7.85;3.13;;;;;;;;;;5035125;28;20036;-57
2021/07/09 04:56:55;;;;;;;3.78;1.42;;;;;;;;;;5029409;28;20021;-57
2021/07/09 04:59:21;;;;;;;3.90;1.20;;;;;;;;;;5029173;28;20055;-57
2021/07/09 05:01:46;;;;;;;4.05;1.60;;;;;;;;;;5033371;28;20029;-57
2021/07/09 05:04:11;;;;;;;9.25;2.67;;;;;;;;;;5037118;28;20056;-57
2021/07/09 05:06:37;;;;;;;6.82;2.60;;;;;;;;;;5037850;28;20033;-56
2021/07/09 05:09:03;;;;;;;2.95;2.17;;;;;;;;;;5035909;28;20752;-57
2021/07/09 05:11:29;;;;;;;7.53;2.60;;;;;;;;;;5033324;28;20036;-57
2021/07/09 05:13:54;;;;;;;7.78;1.45;;;;;;;;;;5033721;28;20017;-57
2021/07/09 05:16:19;;;;;;;4.25;2.95;;;;;;;;;;5038344;28;20024;-57
2021/07/09 05:18:45;;;;;;;12.73;4.18;;;;;;;;;;5033754;28;20029;-57
2021/07/09 05:21:10;;;;;;;10.70;5.40;;;;;;;;;;5033861;28;20021;-57
2021/07/09 05:23:35;;;;;;;7.13;2.53;;;;;;;;;;5033692;28;20044;-57
2021/07/09 05:26:00;;;;;;;5.95;3.05;;;;;;;;;;5040363;28;20104;-57
2021/07/09 05:28:26;;;;;;;6.07;5.47;;;;;;;;;;5035273;28;20138;-57
2021/07/09 05:30:51;;;;;;;11.55;3.25;;;;;;;;;;5036918;28;20817;-57
2021/07/09 05:33:17;;;;;;;6.03;2.95;;;;;;;;;;5034758;28;20507;-57
2021/07/09 05:35:43;;;;;;;10.10;2.72;;;;;;;;;;5035260;28;20054;-57
2021/07/09 05:38:08;;;;;;;9.23;3.13;;;;;;;;;;5035063;28;20013;-57
2021/07/09 05:40:34;;;;;;;8.88;2.92;;;;;;;;;;5035169;28;20497;-57
2021/07/09 05:43:01;;;;;;;10.40;4.28;;;;;;;;;;5037144;28;20029;-57
2021/07/09 05:45:26;;;;;;;4.30;1.98;;;;;;;;;;5035583;28;20025;-57
2021/07/09 05:47:51;;;;;;;6.05;3.03;;;;;;;;;;5036107;28;20025;-57
2021/07/09 05:50:16;;;;;;;11.25;2.33;;;;;;;;;;5037457;28;20109;-57
2021/07/09 05:52:42;;;;;;;4.82;2.50;;;;;;;;;;5032900;28;20021;-56
2021/07/09 05:55:07;;;;;;;9.90;3.17;;;;;;;;;;5035062;28;20113;-57
2021/07/09 05:57:33;;;;;;;7.03;4.60;;;;;;;;;;5037687;28;20025;-58
2021/07/09 05:59:58;;;;;;;5.18;2.75;;;;;;;;;;5042986;28;20020;-57
2021/07/09 06:02:23;;;;;;;6.32;2.55;;;;;;;;;;5037099;28;20017;-56
2021/07/09 06:04:48;;;;;;;1.65;1.33;;;;;;;;;;5034010;28;20024;-57
2021/07/09 06:07:14;;;;;;;3.95;1.83;;;;;;;;;;5032898;28;20812;-57
2021/07/09 06:09:40;;;;;;;3.25;2.00;;;;;;;;;;5036094;28;20559;-57
2021/07/09 06:12:05;;;;;;;3.10;2.28;;;;;;;;;;5028091;28;20665;-56
2021/07/09 06:14:30;;;;;;;8.80;6.30;;;;;;;;;;5031531;28;20025;-57
2021/07/09 06:16:56;;;;;;;7.43;2.67;;;;;;;;;;5033649;28;20025;-57
2021/07/09 06:19:22;;;;;;;3.55;1.70;;;;;;;;;;5034359;28;20380;-57
2021/07/09 06:21:47;;;;;;;4.35;1.67;;;;;;;;;;5034342;28;20034;-57
2021/07/09 06:24:12;;;;;;;12.50;9.05;;;;;;;;;;5035734;28;20551;-57
2021/07/09 06:26:38;;;;;;;5.57;2.30;;;;;;;;;;5031540;28;20048;-47
2021/07/09 06:29:03;;;;;;;1.80;1.40;;;;;;;;;;5037898;28;20666;-49
2021/07/09 06:31:28;;;;;;;4.15;1.88;;;;;;;;;;5035608;28;20483;-49
2021/07/09 06:33:54;;;;;;;5.80;2.00;;;;;;;;;;5037575;28;20088;-44
2021/07/09 06:36:19;;;;;;;2.88;1.10;;;;;;;;;;5033021;28;20126;-45
2021/07/09 06:38:45;;;;;;;3.05;2.05;;;;;;;;;;5033980;28;20512;-44
2021/07/09 06:41:10;;;;;;;2.10;1.05;;;;;;;;;;5035249;28;20480;-43
2021/07/09 06:43:36;;;;;;;5.90;3.00;;;;;;;;;;5032971;28;20025;-42
2021/07/09 06:46:01;;;;;;;7.05;4.10;;;;;;;;;;5036292;28;20112;-43
2021/07/09 06:48:26;;;;;;;12.85;7.82;;;;;;;;;;5031097;28;20044;-43
2021/07/09 06:50:52;;;;;;;8.38;7.43;;;;;;;;;;5031197;28;20052;-44
2021/07/09 06:53:17;;;;;;;13.93;10.45;;;;;;;;;;5030170;28;20036;-43
2021/07/09 06:55:43;;;;;;;12.73;9.90;;;;;;;;;;5026812;28;20857;-44
2021/07/09 06:58:08;;;;;;;11.90;7.57;;;;;;;;;;5034511;28;20494;-44
2021/07/09 07:00:33;;;;;;;12.20;6.88;;;;;;;;;;5032672;28;20032;-42
2021/07/09 07:02:59;;;;;;;8.40;6.32;;;;;;;;;;5034850;28;20028;-46
2021/07/09 07:05:24;;;;;;;11.00;6.18;;;;;;;;;;5034097;28;20029;-45
2021/07/09 07:07:50;;;;;;;7.47;5.45;;;;;;;;;;5033771;28;20057;-44
2021/07/09 07:10:15;;;;;;;8.95;3.60;;;;;;;;;;5036135;28;20086;-44
2021/07/09 07:12:45;;;;;;;2.83;1.52;;;;;;;;;;5034135;28;20025;-44
2021/07/09 07:15:10;;;;;;;3.53;2.15;;;;;;;;;;5033369;28;20064;-46
2021/07/09 07:17:37;;;;;;;2.72;1.77;;;;;;;;;;5031025;28;20476;-46
2021/07/09 07:20:03;;;;;;;3.60;2.50;;;;;;;;;;5034717;28;20013;-44
2021/07/09 07:22:28;;;;;;;5.82;2.33;;;;;;;;;;5033516;28;20366;-45
2021/07/09 07:24:53;;;;;;;1.95;1.15;;;;;;;;;;5028440;28;20513;-43
2021/07/09 07:27:21;;;;;;;1.63;1.50;;;;;;;;;;5029118;28;20138;-45
2021/07/09 07:29:46;;;;;;;3.05;2.03;;;;;;;;;;5029412;28;20029;-44
2021/07/09 07:32:12;;;;;;;4.15;1.75;;;;;;;;;;5035633;28;20028;-43
2021/07/09 07:34:37;;;;;;;7.18;2.65;;;;;;;;;;5038401;28;20020;-47
2021/07/09 07:37:02;;;;;;;1.92;0.63;;;;;;;;;;5037988;28;20532;-46
2021/07/09 07:39:28;;;;;;;0.77;0.63;;;;;;;;;;5032327;28;20018;-44
2021/07/09 07:41:53;;;;;;;10.63;1.33;;;;;;;;;;5031187;28;20400;-43
2021/07/09 07:44:18;;;;;;;6.05;2.55;;;;;;;;;;5031729;28;20031;-43
2021/07/09 07:46:48;;;;;;;4.45;1.80;;;;;;;;;;5031892;28;20068;-45
2021/07/09 07:49:13;;;;;;;15.18;1.77;;;;;;;;;;5026977;28;20017;-45
2021/07/09 07:51:39;;;;;;;5.45;1.90;;;;;;;;;;5029078;28;20594;-44
2021/07/09 07:54:04;;;;;;;3.38;1.48;;;;;;;;;;5037162;28;20022;-48
2021/07/09 07:56:29;;;;;;;4.63;2.60;;;;;;;;;;5032762;28;20075;-43
2021/07/09 07:58:54;;;;;;;2.78;1.63;;;;;;;;;;5036362;28;20076;-46
2021/07/09 08:01:20;;;;;;;4.65;1.95;;;;;;;;;;5030757;28;20167;-45
2021/07/09 08:03:46;;;;;;;4.68;1.70;;;;;;;;;;5032010;28;20461;-47
2021/07/09 08:06:11;;;;;;;6.43;1.77;;;;;;;;;;5035871;28;20022;-43
2021/07/09 08:08:38;;;;;;;6.28;1.10;;;;;;;;;;5033099;28;20049;-43
2021/07/09 08:11:04;;;;;;;1.67;0.77;;;;;;;;;;5030536;28;20470;-46
2021/07/09 08:13:29;;;;;;;2.30;0.98;;;;;;;;;;5036523;28;20025;-44
2021/07/09 08:15:54;;;;;;;6.00;0.85;;;;;;;;;;5033598;28;20029;-43
2021/07/09 08:18:20;;;;;;;2.80;1.33;;;;;;;;;;5028845;28;20017;-45
2021/07/09 08:20:45;;;;;;;2.42;1.45;;;;;;;;;;5033502;28;20325;-40
2021/07/09 08:23:10;;;;;;;5.15;1.42;;;;;;;;;;5031311;28;20037;-37
2021/07/09 08:25:36;;;;;;;4.40;1.60;;;;;;;;;;5034387;28;20029;-40
2021/07/09 08:28:01;;;;;;;10.57;1.55;;;;;;;;;;5039226;28;20021;-43
2021/07/09 08:30:27;;;;;;;1.67;1.23;;;;;;;;;;5029775;28;20037;-46
2021/07/09 08:32:52;;;;;;;4.28;1.60;;;;;;;;;;5028491;28;20485;-48
2021/07/09 08:35:17;;;;;;;3.15;1.00;;;;;;;;;;5032422;28;20477;-44
2021/07/09 08:37:43;;;;;;;2.35;1.20;;;;;;;;;;5039840;28;20028;-45
2021/07/09 08:40:09;;;;;;;5.85;3.33;;;;;;;;;;5038285;28;20671;-43
2021/07/09 08:42:36;;;;;;;1.80;1.33;;;;;;;;;;5038290;28;20029;-44
2021/07/09 08:45:01;;;;;;;3.28;1.63;;;;;;;;;;5037830;28;20049;-42
2021/07/09 08:47:28;;;;;;;4.00;0.70;;;;;;;;;;5037690;28;20073;-45
2021/07/09 08:49:53;;;;;;;1.88;0.98;;;;;;;;;;5037325;28;20028;-42
2021/07/09 08:52:19;;;;;;;3.10;0.55;;;;;;;;;;5032104;28;20127;-46
2021/07/09 08:54:44;;;;;;;3.35;0.70;;;;;;;;;;5031311;28;20017;-43
2021/07/09 08:57:10;;;;;;;2.30;1.08;;;;;;;;;;5035385;28;20061;-46
2021/07/09 08:59:36;;;;;;;2.20;1.50;;;;;;;;;;5037017;28;20033;-43
2021/07/09 09:02:04;;;;;;;5.75;0.75;;;;;;;;;;5031654;28;20018;-50
2021/07/09 09:04:30;;;;;;;4.18;1.17;;;;;;;;;;5033907;28;20025;-39
2021/07/09 09:07:06;;;;;;;3.30;1.23;;;;;;;;;;5034403;28;20115;-44
2021/07/09 09:09:35;;;;;;;2.00;1.30;;;;;;;;;;5037468;28;20112;-50
2021/07/09 09:12:06;;;;;;;3.38;1.70;;;;;;;;;;5036427;28;20025;-42
2021/07/09 09:14:39;;;;;;;2.45;1.38;;;;;;;;;;5035791;28;20028;-44
2021/07/09 09:17:24;;;;;;;4.43;1.48;;;;;;;;;;5037775;28;20366;-46
2021/07/09 09:20:11;;;;;;;3.00;1.65;;;;;;;;;;5036042;28;20037;-45
2021/07/09 09:22:39;;;;;;;3.63;1.30;;;;;;;;;;5034635;28;20060;-42
2021/07/09 09:25:05;;;;;;;2.17;0.98;;;;;;;;;;5035309;28;20037;-46
2021/07/09 09:27:30;;;;;;;6.15;2.20;;;;;;;;;;5038654;28;20017;-43
2021/07/09 09:30:06;;;;;;;3.38;1.48;;;;;;;;;;5033414;28;20029;-43
2021/07/09 09:32:31;;;;;;;5.25;1.02;;;;;;;;;;5036345;28;20025;-46
2021/07/09 09:34:57;;;;;;;14.20;1.63;;;;;;;;;;5034353;28;20450;-44
2021/07/09 09:37:28;;;;;;;5.07;1.40;;;;;;;;;;5034347;28;20481;-43
2021/07/09 09:39:54;;;;;;;4.72;1.27;;;;;;;;;;5039500;28;20045;-45
2021/07/09 09:42:24;;;;;;;4.45;1.25;;;;;;;;;;5034489;28;20083;-45
2021/07/09 09:44:50;;;;;;;9.80;4.88;;;;;;;;;;5035314;28;20083;-44
2021/07/09 09:47:20;;;;;;;2.30;1.63;;;;;;;;;;5035750;28;20511;-44
2021/07/09 09:49:50;;;;;;;2.13;1.00;;;;;;;;;;5031613;28;20044;-48
2021/07/09 09:52:31;;;;;;;1.23;0.70;;;;;;;;;;5031661;28;20055;-44
2021/07/09 09:54:56;;;;;;;1.38;0.93;;;;;;;;;;5035808;28;20786;-44
2021/07/09 09:57:21;;;;;;;1.60;0.98;;;;;;;;;;5028637;28;20024;-43
2021/07/09 09:59:50;;;;;;;1.25;0.65;;;;;;;;;;5034352;28;20031;-45
2021/07/09 10:02:16;;;;;;;2.63;0.68;;;;;;;;;;5037855;28;20034;-43
2021/07/09 10:04:41;;;;;;;0.85;0.57;;;;;;;;;;5035746;28;20021;-45
2021/07/09 10:07:07;;;;;;;11.18;1.73;;;;;;;;;;5034341;28;20397;-45
2021/07/09 10:09:33;;;;;;;2.97;1.00;;;;;;;;;;5034920;28;20048;-45
2021/07/09 10:12:03;;;;;;;11.65;1.58;;;;;;;;;;5032956;28;20107;-47
2021/07/09 10:14:30;;;;;;;2.20;1.20;;;;;;;;;;5036491;28;20021;-48
2021/07/09 10:17:00;;;;;;;5.43;1.13;;;;;;;;;;5034333;28;20024;-43
2021/07/09 10:19:37;;;;;;;5.10;1.60;;;;;;;;;;5039441;28;20104;-48
2021/07/09 10:22:03;;;;;;;3.10;0.95;;;;;;;;;;5037556;28;20031;-44
2021/07/09 10:24:28;;;;;;;6.47;2.00;;;;;;;;;;5034148;28;20037;-41
2021/07/09 10:26:55;;;;;;;2.03;1.20;;;;;;;;;;5034363;28;20017;-44
2021/07/09 10:29:30;;;;;;;6.75;0.93;;;;;;;;;;5032426;28;20033;-42
2021/07/09 10:31:56;;;;;;;5.28;0.90;;;;;;;;;;5037607;28;20088;-44
2021/07/09 10:34:24;;;;;;;1.85;0.73;;;;;;;;;;5029651;28;20401;-45
2021/07/09 10:36:54;;;;;;;1.60;0.88;;;;;;;;;;5036039;28;20032;-42
2021/07/09 10:39:38;;;;;;;3.17;2.00;;;;;;;;;;5033874;28;20730;-42
2021/07/09 10:42:13;;;;;;;2.83;1.00;;;;;;;;;;5037431;28;20029;-43
2021/07/09 10:44:54;;;;;;;2.95;0.70;;;;;;;;;;5033707;28;20303;-44
2021/07/09 10:47:19;;;;;;;2.22;1.10;;;;;;;;;;5033442;28;20669;-47
2021/07/09 10:49:50;;;;;;;5.68;3.03;;;;;;;;;;5032034;28;20033;-47
2021/07/09 10:52:34;;;;;;;17.10;1.83;;;;;;;;;;5034017;28;20500;-44
2021/07/09 10:54:59;;;;;;;2.33;1.10;;;;;;;;;;5039040;28;20024;-46
2021/07/09 10:57:25;;;;;;;1.65;0.60;;;;;;;;;;5034760;28;20479;-42
2021/07/09 11:00:08;;;;;;;3.25;1.70;;;;;;;;;;5031439;28;20473;-45
2021/07/09 11:02:52;;;;;;;2.25;0.98;;;;;;;;;;5033206;28;20044;-44
2021/07/09 11:05:41;;;;;;;4.25;1.60;;;;;;;;;;5032932;28;20037;-47
2021/07/09 11:08:32;;;;;;;2.75;1.50;;;;;;;;;;5032052;28;20102;-43
2021/07/09 11:11:02;;;;;;;2.35;0.63;;;;;;;;;;5028959;28;20071;-44
2021/07/09 11:13:39;;;;;;;5.65;2.25;;;;;;;;;;5028002;28;20033;-45
2021/07/09 11:16:16;;;;;;;2.95;0.88;;;;;;;;;;5034908;28;20056;-44
2021/07/09 11:18:46;;;;;;;4.07;1.02;;;;;;;;;;5031129;28;20013;-43
2021/07/09 11:21:11;;;;;;;5.30;1.48;;;;;;;;;;5031370;28;20092;-44
2021/07/09 11:23:37;;;;;;;2.15;0.90;;;;;;;;;;5048228;28;20033;-45
2021/07/09 11:26:08;;;;;;;1.73;0.68;;;;;;;;;;5031441;28;20018;-42
2021/07/09 11:28:33;;;;;;;5.65;1.00;;;;;;;;;;5038280;28;20033;-45
2021/07/09 11:30:59;;;;;;;5.85;2.65;;;;;;;;;;5033902;28;20025;-43
2021/07/09 11:33:24;;;;;;;3.67;1.30;;;;;;;;;;5032298;28;20026;-43
2021/07/09 11:35:50;;;;;;;1.55;1.05;;;;;;;;;;5031210;28;20028;-43
2021/07/09 11:38:15;;;;;;;7.18;1.52;;;;;;;;;;5028683;28;20056;-43
2021/07/09 11:40:41;;;;;;;2.50;1.00;;;;;;;;;;5028805;28;20572;-43
2021/07/09 11:43:06;;;;;;;3.95;1.05;;;;;;;;;;5036587;28;20345;-43
2021/07/09 11:45:31;;;;;;;1.02;0.70;;;;;;;;;;5035956;28;20108;-43
2021/07/09 11:48:00;;;;;;;0.95;0.75;;;;;;;;;;5034868;28;20179;-45
2021/07/09 11:50:26;;;;;;;6.93;1.55;;;;;;;;;;5034126;28;20056;-44
2021/07/09 11:52:52;;;;;;;2.05;1.25;;;;;;;;;;5034487;28;20049;-45
2021/07/09 11:55:26;;;;;;;1.17;0.57;;;;;;;;;;5033850;28;20075;-40
2021/07/09 11:57:51;;;;;;;1.00;0.65;;;;;;;;;;5030710;28;20017;-43
2021/07/09 12:00:17;;;;;;;4.30;0.40;;;;;;;;;;5035769;28;20024;-42
2021/07/09 12:02:44;;;;;;;2.63;0.85;;;;;;;;;;5032002;28;20029;-41
2021/07/09 12:05:13;;;;;;;2.88;1.27;;;;;;;;;;5032100;28;20115;-41
2021/07/09 12:07:39;;;;;;;1.52;0.50;;;;;;;;;;5049436;28;20053;-43
2021/07/09 12:10:08;;;;;;;3.88;1.42;;;;;;;;;;5032347;28;20028;-48
2021/07/09 12:12:44;;;;;;;4.68;1.50;;;;;;;;;;5035633;28;20021;-45
2021/07/09 12:15:11;;;;;;;3.92;1.33;;;;;;;;;;5040023;28;20017;-44
2021/07/09 12:17:38;;;;;;;1.45;0.47;;;;;;;;;;5034586;28;20505;-47
2021/07/09 12:20:11;;;;;;;2.78;1.05;;;;;;;;;;5032088;28;20033;-47
2021/07/09 12:22:38;;;;;;;6.70;1.30;;;;;;;;;;5032013;28;20484;-44
2021/07/09 12:25:07;;;;;;;1.88;0.85;;;;;;;;;;5031089;28;20168;-47
2021/07/09 12:27:34;;;;;;;1.10;0.93;;;;;;;;;;5033031;28;20097;-44
2021/07/09 12:30:03;;;;;;;5.35;1.10;;;;;;;;;;5030133;28;20243;-44
2021/07/09 12:32:28;;;;;;;1.30;0.75;;;;;;;;;;5031414;28;20484;-44
2021/07/09 12:35:02;;;;;;;2.05;0.95;;;;;;;;;;5036361;28;20021;-45
2021/07/09 12:37:27;;;;;;;16.50;2.92;;;;;;;;;;5032686;28;20022;-47
2021/07/09 12:39:52;;;;;;;1.60;0.52;;;;;;;;;;5029373;28;20021;-47
2021/07/09 12:42:22;;;;;;;1.83;0.82;;;;;;;;;;5026599;28;20029;-44
2021/07/09 12:44:51;;;;;;;9.87;1.37;;;;;;;;;;5031311;28;20111;-43
2021/07/09 12:47:16;;;;;;;2.08;0.73;;;;;;;;;;5030578;28;20368;-46
2021/07/09 12:49:42;;;;;;;1.92;0.80;;;;;;;;;;5035255;28;20064;-45
2021/07/09 12:52:07;;;;;;;3.22;0.93;;;;;;;;;;5031966;28;20021;-43
2021/07/09 12:54:33;;;;;;;1.77;1.02;;;;;;;;;;5033614;28;20021;-43
2021/07/09 12:56:59;;;;;;;1.38;1.20;;;;;;;;;;5034749;28;20680;-45
2021/07/09 12:59:25;;;;;;;4.22;1.50;;;;;;;;;;5033319;28;20075;-49
2021/07/09 13:01:59;;;;;;;2.35;1.15;;;;;;;;;;5033818;28;20514;-45
2021/07/09 13:04:25;;;;;;;4.10;1.27;;;;;;;;;;5029646;28;20626;-46
2021/07/09 13:07:03;;;;;;;5.80;1.48;;;;;;;;;;5035252;28;20448;-46
2021/07/09 13:09:30;;;;;;;1.35;1.25;;;;;;;;;;5032681;28;20032;-42
2021/07/09 13:11:55;;;;;;;2.13;0.70;;;;;;;;;;5026234;28;20021;-49
2021/07/09 13:14:25;;;;;;;2.92;0.80;;;;;;;;;;5029503;28;20703;-46
2021/07/09 13:16:51;;;;;;;3.40;1.17;;;;;;;;;;5024145;28;20025;-45
2021/07/09 13:19:28;;;;;;;5.57;1.33;;;;;;;;;;5031984;28;20040;-42
2021/07/09 13:21:55;;;;;;;1.13;0.60;;;;;;;;;;5035693;28;20016;-44
2021/07/09 13:24:20;;;;;;;2.92;1.25;;;;;;;;;;5038210;28;20029;-44
2021/07/09 13:26:47;;;;;;;1.52;0.93;;;;;;;;;;5038027;28;20479;-48
2021/07/09 13:29:16;;;;;;;3.95;0.68;;;;;;;;;;5034524;28;20075;-46
2021/07/09 13:31:43;;;;;;;2.45;1.05;;;;;;;;;;5031971;28;20092;-45
2021/07/09 13:34:08;;;;;;;2.78;0.88;;;;;;;;;;5034851;28;20021;-45
2021/07/09 13:36:34;;;;;;;8.00;1.00;;;;;;;;;;5035755;28;20024;-45
2021/07/09 13:38:59;;;;;;;4.05;1.55;;;;;;;;;;5034908;28;20114;-49
2021/07/09 13:41:24;;;;;;;2.55;1.67;;;;;;;;;;5033779;28;20021;-47
2021/07/09 13:43:50;;;;;;;2.33;1.48;;;;;;;;;;5034988;28;20024;-46
2021/07/09 13:46:15;;;;;;;16.55;1.50;;;;;;;;;;5037697;28;20111;-48
2021/07/09 13:48:41;;;;;;;1.33;0.75;;;;;;;;;;5037777;28;20023;-43
2021/07/09 13:51:06;;;;;;;0.50;0.38;;;;;;;;;;5039654;28;20029;-46
2021/07/09 13:53:32;;;;;;;2.22;0.60;;;;;;;;;;5034720;28;20049;-44
2021/07/09 13:55:57;;;;;;;1.20;0.82;;;;;;;;;;5035218;28;20053;-44
2021/07/09 13:58:22;;;;;;;6.22;1.58;;;;;;;;;;5033669;28;20068;-45
2021/07/09 14:00:48;;;;;;;1.92;0.95;;;;;;;;;;5036598;28;20032;-43
2021/07/09 14:03:13;;;;;;;3.00;1.27;;;;;;;;;;5032039;28;20553;-44
2021/07/09 14:05:38;;;;;;;2.78;1.38;;;;;;;;;;5032372;28;20028;-44
2021/07/09 14:08:04;;;;;;;5.32;0.73;;;;;;;;;;5030896;28;20046;-48
2021/07/09 14:10:29;;;;;;;6.28;0.95;;;;;;;;;;5035743;28;20481;-43
2021/07/09 14:12:55;;;;;;;4.05;1.08;;;;;;;;;;5035997;28;20018;-45
2021/07/09 14:15:20;;;;;;;3.67;1.40;;;;;;;;;;5038607;28;20480;-44
2021/07/09 14:17:45;;;;;;;1.42;0.60;;;;;;;;;;5033801;28;20467;-43
2021/07/09 14:20:12;;;;;;;1.40;0.90;;;;;;;;;;5037702;28;20096;-45
2021/07/09 14:22:37;;;;;;;2.15;1.42;;;;;;;;;;5038578;28;20091;-44
2021/07/09 14:25:03;;;;;;;0.93;0.63;;;;;;;;;;5037040;28;20025;-43
2021/07/09 14:27:28;;;;;;;1.88;0.98;;;;;;;;;;5034724;28;20025;-44
2021/07/09 14:29:53;;;;;;;2.63;0.60;;;;;;;;;;5039075;28;20607;-45
2021/07/09 14:32:18;;;;;;;1.75;0.95;;;;;;;;;;5034504;28;20075;-46
2021/07/09 14:34:44;;;;;;;1.27;0.57;;;;;;;;;;5038238;28;20369;-43
2021/07/09 14:37:09;;;;;;;1.20;0.68;;;;;;;;;;5034739;28;20066;-45